Villa La Angostura, Argentina
Current Conditions -  °F | °C
As of 10:00 AM on Friday 28 Nov 2014 (Local Time) from SAZS Reporting Station
Scattered Clouds Scattered Clouds  
Wind Chill: 57°   Ceiling: Unl
Heat Index: 57°   Visibility: 6mi
Dew Point: 41°   Wind: 17mph
Humidity: 55%   Direction: 320°NW
Pressure: 29.85"   Gusts: NA
Location:  40.78°S, 71.67°W
Report Text: SAZS 281300Z 32015KT 9999 SCT015 SCT03014/05 Q1011
Loading
Personal Weather Stations






























Interactive Weather Map New forecast layout! Learn more

10-Day Weather Forecast

Advertisements
Track Severe Weather on mobile